sensor_id;sensor_type;location;lat;lon;timestamp;pressure;altitude;pressure_sealevel;temperature;humidity
55010;BME280;40903;51.638;7.528;2023-02-17T00:00:22;101435.84;;;9.40;100.00
55010;BME280;40903;51.638;7.528;2023-02-17T00:02:47;101431.25;;;9.45;100.00
55010;BME280;40903;51.638;7.528;2023-02-17T00:05:13;101429.88;;;9.43;100.00
55010;BME280;40903;51.638;7.528;2023-02-17T00:07:38;101427.69;;;9.40;100.00
55010;BME280;40903;51.638;7.528;2023-02-17T00:10:04;101420.38;;;9.40;100.00
55010;BME280;40903;51.638;7.528;2023-02-17T00:12:30;101412.22;;;9.45;100.00
55010;BME280;40903;51.638;7.528;2023-02-17T00:14:55;101414.09;;;9.45;100.00
55010;BME280;40903;51.638;7.528;2023-02-17T00:17:20;101407.00;;;9.44;100.00
55010;BME280;40903;51.638;7.528;2023-02-17T00:19:45;101403.75;;;9.42;100.00
55010;BME280;40903;51.638;7.528;2023-02-17T00:22:11;101399.16;;;9.47;100.00
55010;BME280;40903;51.638;7.528;2023-02-17T00:24:36;101395.09;;;9.50;100.00
55010;BME280;40903;51.638;7.528;2023-02-17T00:27:02;101396.41;;;9.47;100.00
55010;BME280;40903;51.638;7.528;2023-02-17T00:29:27;101393.16;;;9.50;100.00
55010;BME280;40903;51.638;7.528;2023-02-17T00:31:53;101390.97;;;9.52;100.00
55010;BME280;40903;51.638;7.528;2023-02-17T00:34:18;101392.06;;;9.51;100.00
55010;BME280;40903;51.638;7.528;2023-02-17T00:36:44;101387.19;;;9.53;100.00
55010;BME280;40903;51.638;7.528;2023-02-17T00:39:10;101393.16;;;9.50;100.00
55010;BME280;40903;51.638;7.528;2023-02-17T00:41:36;101382.06;;;9.62;100.00
55010;BME280;40903;51.638;7.528;2023-02-17T00:44:01;101380.13;;;9.62;100.00
55010;BME280;40903;51.638;7.528;2023-02-17T00:46:27;101378.25;;;9.63;100.00
55010;BME280;40903;51.638;7.528;2023-02-17T00:48:52;101376.31;;;9.58;100.00
55010;BME280;40903;51.638;7.528;2023-02-17T00:51:18;101374.13;;;9.55;100.00
55010;BME280;40903;51.638;7.528;2023-02-17T00:53:44;101374.13;;;9.55;100.00
55010;BME280;40903;51.638;7.528;2023-02-17T00:56:09;101376.56;;;9.57;100.00
55010;BME280;40903;51.638;7.528;2023-02-17T00:58:34;101375.53;;;9.63;100.00
55010;BME280;40903;51.638;7.528;2023-02-17T01:01:00;101377.41;;;9.67;100.00
55010;BME280;40903;51.638;7.528;2023-02-17T01:03:26;101373.06;;;9.66;100.00
55010;BME280;40903;51.638;7.528;2023-02-17T01:05:51;101367.91;;;9.69;100.00
55010;BME280;40903;51.638;7.528;2023-02-17T01:08:18;101374.44;;;9.68;100.00
55010;BME280;40903;51.638;7.528;2023-02-17T01:10:44;101361.38;;;9.66;100.00
55010;BME280;40903;51.638;7.528;2023-02-17T01:13:10;101371.19;;;9.71;100.00
55010;BME280;40903;51.638;7.528;2023-02-17T01:15:45;101362.19;;;9.71;100.00
55010;BME280;40903;51.638;7.528;2023-02-17T01:18:11;101361.66;;;9.79;100.00
55010;BME280;40903;51.638;7.528;2023-02-17T01:20:36;101354.59;;;9.78;100.00
55010;BME280;40903;51.638;7.528;2023-02-17T01:23:02;101353.78;;;9.82;100.00
55010;BME280;40903;51.638;7.528;2023-02-17T01:25:27;101346.94;;;9.80;100.00
55010;BME280;40903;51.638;7.528;2023-02-17T01:27:53;101339.31;;;9.82;100.00
55010;BME280;40903;51.638;7.528;2023-02-17T01:30:18;101335.81;;;9.86;100.00
55010;BME280;40903;51.638;7.528;2023-02-17T01:32:43;101336.88;;;9.85;100.00
55010;BME280;40903;51.638;7.528;2023-02-17T01:35:08;101327.38;;;9.88;100.00
55010;BME280;40903;51.638;7.528;2023-02-17T01:37:34;101327.91;;;9.95;100.00
55010;BME280;40903;51.638;7.528;2023-02-17T01:39:59;101328.44;;;9.92;100.00
55010;BME280;40903;51.638;7.528;2023-02-17T01:42:24;101321.91;;;9.93;100.00
55010;BME280;40903;51.638;7.528;2023-02-17T01:47:33;101322.75;;;9.93;100.00
55010;BME280;40903;51.638;7.528;2023-02-17T01:49:58;101321.38;;;9.96;100.00
55010;BME280;40903;51.638;7.528;2023-02-17T01:52:23;101321.38;;;10.01;100.00
55010;BME280;40903;51.638;7.528;2023-02-17T01:54:54;101329.84;;;10.04;100.00
55010;BME280;40903;51.638;7.528;2023-02-17T01:57:22;101326.84;;;10.01;100.00
55010;BME280;40903;51.638;7.528;2023-02-17T01:59:48;101318.63;;;9.96;100.00
55010;BME280;40903;51.638;7.528;2023-02-17T02:02:14;101321.97;;;10.03;100.00
55010;BME280;40903;51.638;7.528;2023-02-17T02:04:40;101317.59;;;10.07;100.00
55010;BME280;40903;51.638;7.528;2023-02-17T02:07:09;101316.47;;;9.98;100.00
55010;BME280;40903;51.638;7.528;2023-02-17T02:09:37;101317.59;;;10.02;100.00
55010;BME280;40903;51.638;7.528;2023-02-17T02:12:14;101320.88;;;10.04;100.00
55010;BME280;40903;51.638;7.528;2023-02-17T02:14:40;101322.50;;;10.05;100.00
55010;BME280;40903;51.638;7.528;2023-02-17T02:17:09;101320.03;;;10.03;100.00
55010;BME280;40903;51.638;7.528;2023-02-17T02:19:54;101313.75;;;9.93;100.00
55010;BME280;40903;51.638;7.528;2023-02-17T02:22:37;101323.00;;;9.97;100.00
55010;BME280;40903;51.638;7.528;2023-02-17T02:28:44;101310.22;;;9.97;100.00
55010;BME280;40903;51.638;7.528;2023-02-17T02:35:51;101304.22;;;10.00;100.00
55010;BME280;40903;51.638;7.528;2023-02-17T02:38:40;101301.78;;;10.04;100.00
55010;BME280;40903;51.638;7.528;2023-02-17T02:41:08;101295.81;;;10.02;100.00
55010;BME280;40903;51.638;7.528;2023-02-17T02:43:35;101287.59;;;9.97;100.00
55010;BME280;40903;51.638;7.528;2023-02-17T02:46:01;101283.53;;;10.04;100.00
55010;BME280;40903;51.638;7.528;2023-02-17T02:48:26;101275.91;;;10.01;100.00
55010;BME280;40903;51.638;7.528;2023-02-17T02:51:06;101270.19;;;10.03;100.00
55010;BME280;40903;51.638;7.528;2023-02-17T02:53:43;101263.63;;;9.99;100.00
55010;BME280;40903;51.638;7.528;2023-02-17T02:56:15;101256.84;;;10.06;100.00
55010;BME280;40903;51.638;7.528;2023-02-17T03:01:22;101258.75;;;10.06;100.00
55010;BME280;40903;51.638;7.528;2023-02-17T03:04:24;101254.38;;;10.05;100.00
55010;BME280;40903;51.638;7.528;2023-02-17T03:06:47;101252.75;;;10.09;100.00
55010;BME280;40903;51.638;7.528;2023-02-17T03:09:31;101253.28;;;10.11;100.00
55010;BME280;40903;51.638;7.528;2023-02-17T03:11:57;101252.75;;;10.09;100.00
55010;BME280;40903;51.638;7.528;2023-02-17T03:14:22;101255.47;;;10.19;100.00
55010;BME280;40903;51.638;7.528;2023-02-17T03:16:48;101259.56;;;10.21;100.00
55010;BME280;40903;51.638;7.528;2023-02-17T03:19:13;101263.38;;;10.15;100.00
55010;BME280;40903;51.638;7.528;2023-02-17T03:21:43;101264.19;;;10.16;100.00
55010;BME280;40903;51.638;7.528;2023-02-17T03:24:11;101274.56;;;10.14;100.00
55010;BME280;40903;51.638;7.528;2023-02-17T03:26:36;101276.72;;;10.12;100.00
55010;BME280;40903;51.638;7.528;2023-02-17T03:29:01;101270.75;;;10.15;100.00
55010;BME280;40903;51.638;7.528;2023-02-17T03:31:27;101257.38;;;10.13;100.00
55010;BME280;40903;51.638;7.528;2023-02-17T03:33:52;101249.47;;;10.22;100.00
55010;BME280;40903;51.638;7.528;2023-02-17T03:36:17;101249.47;;;10.22;100.00
55010;BME280;40903;51.638;7.528;2023-02-17T03:38:42;101251.09;;;10.18;100.00
55010;BME280;40903;51.638;7.528;2023-02-17T03:41:08;101254.09;;;10.21;100.00
55010;BME280;40903;51.638;7.528;2023-02-17T03:43:33;101251.91;;;10.18;100.00
55010;BME280;40903;51.638;7.528;2023-02-17T03:45:59;101253.84;;;10.18;100.00
55010;BME280;40903;51.638;7.528;2023-02-17T03:48:24;101253.56;;;10.24;100.00
55010;BME280;40903;51.638;7.528;2023-02-17T03:50:49;101266.91;;;10.21;100.00
55010;BME280;40903;51.638;7.528;2023-02-17T03:53:15;101270.72;;;10.20;100.00
55010;BME280;40903;51.638;7.528;2023-02-17T03:55:40;101274.81;;;10.17;100.00
55010;BME280;40903;51.638;7.528;2023-02-17T03:58:05;101260.09;;;10.18;100.00
55010;BME280;40903;51.638;7.528;2023-02-17T04:00:30;101266.63;;;10.17;100.00
55010;BME280;40903;51.638;7.528;2023-02-17T04:02:55;101268.81;;;10.15;100.00
55010;BME280;40903;51.638;7.528;2023-02-17T04:05:21;101263.63;;;10.24;100.00
55010;BME280;40903;51.638;7.528;2023-02-17T04:07:47;101268.28;;;10.23;100.00
55010;BME280;40903;51.638;7.528;2023-02-17T04:10:12;101258.72;;;10.21;100.00
55010;BME280;40903;51.638;7.528;2023-02-17T04:12:37;101257.09;;;10.25;100.00
55010;BME280;40903;51.638;7.528;2023-02-17T04:15:02;101260.34;;;10.27;100.00
55010;BME280;40903;51.638;7.528;2023-02-17T04:17:28;101263.63;;;10.34;100.00
55010;BME280;40903;51.638;7.528;2023-02-17T04:19:53;101255.72;;;10.37;100.00
55010;BME280;40903;51.638;7.528;2023-02-17T04:22:18;101254.34;;;10.35;100.00
55010;BME280;40903;51.638;7.528;2023-02-17T04:24:43;101248.06;;;10.39;100.00
55010;BME280;40903;51.638;7.528;2023-02-17T04:27:08;101246.69;;;10.42;100.00
55010;BME280;40903;51.638;7.528;2023-02-17T04:29:34;101245.88;;;10.46;100.00
55010;BME280;40903;51.638;7.528;2023-02-17T04:31:59;101233.31;;;10.45;100.00
55010;BME280;40903;51.638;7.528;2023-02-17T04:34:24;101237.41;;;10.43;100.00
55010;BME280;40903;51.638;7.528;2023-02-17T04:36:49;101237.41;;;10.48;100.00
55010;BME280;40903;51.638;7.528;2023-02-17T04:39:15;101229.75;;;10.55;100.00
55010;BME280;40903;51.638;7.528;2023-02-17T04:41:40;101230.88;;;10.49;100.00
55010;BME280;40903;51.638;7.528;2023-02-17T04:44:05;101243.91;;;10.57;100.00
55010;BME280;40903;51.638;7.528;2023-02-17T04:46:30;101235.75;;;10.57;100.00
55010;BME280;40903;51.638;7.528;2023-02-17T04:48:56;101231.38;;;10.61;100.00
55010;BME280;40903;51.638;7.528;2023-02-17T04:51:21;101227.00;;;10.65;100.00
55010;BME280;40903;51.638;7.528;2023-02-17T04:53:46;101235.44;;;10.63;100.00
55010;BME280;40903;51.638;7.528;2023-02-17T04:56:11;101224.28;;;10.65;100.00
55010;BME280;40903;51.638;7.528;2023-02-17T04:58:37;101220.41;;;10.71;100.00
55010;BME280;40903;51.638;7.528;2023-02-17T05:01:02;101219.59;;;10.75;100.00
55010;BME280;40903;51.638;7.528;2023-02-17T05:03:27;101217.13;;;10.74;100.00
55010;BME280;40903;51.638;7.528;2023-02-17T05:05:52;101221.78;;;10.73;100.00
55010;BME280;40903;51.638;7.528;2023-02-17T05:08:18;101222.63;;;10.64;100.00
55010;BME280;40903;51.638;7.528;2023-02-17T05:10:43;101224.28;;;10.65;100.00
55010;BME280;40903;51.638;7.528;2023-02-17T05:13:08;101232.97;;;10.67;100.00
55010;BME280;40903;51.638;7.528;2023-02-17T05:15:33;101235.19;;;10.65;100.00
55010;BME280;40903;51.638;7.528;2023-02-17T05:17:58;101228.91;;;10.59;100.00
55010;BME280;40903;51.638;7.528;2023-02-17T05:20:24;101233.25;;;10.65;100.00
55010;BME280;40903;51.638;7.528;2023-02-17T05:22:49;101226.41;;;10.73;100.00
55010;BME280;40903;51.638;7.528;2023-02-17T05:25:14;101232.72;;;10.63;100.00
55010;BME280;40903;51.638;7.528;2023-02-17T05:27:39;101225.91;;;10.66;100.00
55010;BME280;40903;51.638;7.528;2023-02-17T05:30:05;101223.72;;;10.68;100.00
55010;BME280;40903;51.638;7.528;2023-02-17T05:32:30;101231.63;;;10.69;100.00
55010;BME280;40903;51.638;7.528;2023-02-17T05:34:56;101221.25;;;10.71;100.00
55010;BME280;40903;51.638;7.528;2023-02-17T05:37:21;101214.66;;;10.82;100.00
55010;BME280;40903;51.638;7.528;2023-02-17T05:39:46;101214.97;;;10.76;100.00
55010;BME280;40903;51.638;7.528;2023-02-17T05:42:11;101216.59;;;10.77;100.00
55010;BME280;40903;51.638;7.528;2023-02-17T05:44:37;101212.44;;;10.89;100.00
55010;BME280;40903;51.638;7.528;2023-02-17T05:47:02;101215.16;;;10.89;100.00
55010;BME280;40903;51.638;7.528;2023-02-17T05:49:27;101198.53;;;10.86;100.00
55010;BME280;40903;51.638;7.528;2023-02-17T05:51:52;101215.47;;;10.83;100.00
55010;BME280;40903;51.638;7.528;2023-02-17T05:54:18;101203.97;;;10.86;100.00
55010;BME280;40903;51.638;7.528;2023-02-17T05:56:43;101216.28;;;10.83;100.00
55010;BME280;40903;51.638;7.528;2023-02-17T05:59:08;101205.88;;;10.90;100.00
55010;BME280;40903;51.638;7.528;2023-02-17T06:01:33;101195.84;;;10.81;100.00
55010;BME280;40903;51.638;7.528;2023-02-17T06:03:58;101189.50;;;10.90;100.00
55010;BME280;40903;51.638;7.528;2023-02-17T06:06:24;101188.72;;;10.85;100.00
55010;BME280;40903;51.638;7.528;2023-02-17T06:08:49;101174.81;;;10.81;100.00
55010;BME280;40903;51.638;7.528;2023-02-17T06:11:14;101170.16;;;10.87;100.00
55010;BME280;40903;51.638;7.528;2023-02-17T06:13:39;101170.19;;;10.82;100.00
55010;BME280;40903;51.638;7.528;2023-02-17T06:16:04;101180.84;;;10.78;100.00
55010;BME280;40903;51.638;7.528;2023-02-17T06:18:30;101179.78;;;10.74;100.00
55010;BME280;40903;51.638;7.528;2023-02-17T06:20:55;101176.47;;;10.77;100.00
55010;BME280;40903;51.638;7.528;2023-02-17T06:23:21;101183.31;;;10.75;100.00
55010;BME280;40903;51.638;7.528;2023-02-17T06:25:46;101192.56;;;10.79;100.00
55010;BME280;40903;51.638;7.528;2023-02-17T06:28:11;101182.69;;;10.88;100.00
55010;BME280;40903;51.638;7.528;2023-02-17T06:30:36;101193.59;;;10.88;100.00
55010;BME280;40903;51.638;7.528;2023-02-17T06:33:01;101198.53;;;10.86;100.00
55010;BME280;40903;51.638;7.528;2023-02-17T06:35:27;101200.22;;;10.77;100.00
55010;BME280;40903;51.638;7.528;2023-02-17T06:37:52;101193.09;;;10.81;100.00
55010;BME280;40903;51.638;7.528;2023-02-17T06:40:18;101189.81;;;10.84;100.00
55010;BME280;40903;51.638;7.528;2023-02-17T06:42:43;101194.69;;;10.87;100.00
55010;BME280;40903;51.638;7.528;2023-02-17T06:45:08;101196.09;;;10.84;100.00
55010;BME280;40903;51.638;7.528;2023-02-17T06:47:33;101196.63;;;10.81;100.00
55010;BME280;40903;51.638;7.528;2023-02-17T06:49:59;101185.47;;;10.83;100.00
55010;BME280;40903;51.638;7.528;2023-02-17T06:52:24;101197.72;;;10.80;100.00
55010;BME280;40903;51.638;7.528;2023-02-17T06:54:50;101189.53;;;10.80;100.00
55010;BME280;40903;51.638;7.528;2023-02-17T06:57:15;101193.91;;;10.81;100.00
55010;BME280;40903;51.638;7.528;2023-02-17T06:59:41;101198.28;;;10.77;100.00
55010;BME280;40903;51.638;7.528;2023-02-17T07:02:06;101195.00;;;10.80;100.00
55010;BME280;40903;51.638;7.528;2023-02-17T07:04:31;101207.81;;;10.85;100.00
55010;BME280;40903;51.638;7.528;2023-02-17T07:07:00;101197.69;;;10.90;100.00
55010;BME280;40903;51.638;7.528;2023-02-17T07:09:25;101200.41;;;10.90;100.00
55010;BME280;40903;51.638;7.528;2023-02-17T07:11:50;101205.09;;;10.85;100.00
55010;BME280;40903;51.638;7.528;2023-02-17T07:14:16;101207.00;;;10.79;100.00
55010;BME280;40903;51.638;7.528;2023-02-17T07:16:41;101206.19;;;10.84;100.00
55010;BME280;40903;51.638;7.528;2023-02-17T07:19:06;101212.50;;;10.74;100.00
55010;BME280;40903;51.638;7.528;2023-02-17T07:21:32;101205.41;;;10.73;100.00
55010;BME280;40903;51.638;7.528;2023-02-17T07:23:57;101201.03;;;10.77;100.00
55010;BME280;40903;51.638;7.528;2023-02-17T07:26:22;101200.22;;;10.77;100.00
55010;BME280;40903;51.638;7.528;2023-02-17T07:28:47;101211.13;;;10.77;100.00
55010;BME280;40903;51.638;7.528;2023-02-17T07:31:14;101227.50;;;10.72;100.00
55010;BME280;40903;51.638;7.528;2023-02-17T07:33:39;101225.88;;;10.76;100.00
55010;BME280;40903;51.638;7.528;2023-02-17T07:36:09;101204.06;;;10.71;100.00
55010;BME280;40903;51.638;7.528;2023-02-17T07:38:35;101200.53;;;10.70;100.00
55010;BME280;40903;51.638;7.528;2023-02-17T07:41:07;101202.41;;;10.70;100.00
55010;BME280;40903;51.638;7.528;2023-02-17T07:43:33;101204.06;;;10.71;100.00
55010;BME280;40903;51.638;7.528;2023-02-17T07:45:58;101199.16;;;10.68;100.00
55010;BME280;40903;51.638;7.528;2023-02-17T07:48:24;101203.50;;;10.74;100.00
55010;BME280;40903;51.638;7.528;2023-02-17T07:50:49;101206.22;;;10.74;100.00
55010;BME280;40903;51.638;7.528;2023-02-17T07:53:14;101196.41;;;10.78;100.00
55010;BME280;40903;51.638;7.528;2023-02-17T07:55:39;101189.31;;;10.77;100.00
55010;BME280;40903;51.638;7.528;2023-02-17T07:58:04;101191.25;;;10.71;100.00
55010;BME280;40903;51.638;7.528;2023-02-17T08:00:30;101183.59;;;10.73;100.00
55010;BME280;40903;51.638;7.528;2023-02-17T08:02:55;101176.47;;;10.82;100.00
55010;BME280;40903;51.638;7.528;2023-02-17T08:05:20;101181.94;;;10.82;100.00
55010;BME280;40903;51.638;7.528;2023-02-17T08:07:45;101183.81;;;10.82;100.00
55010;BME280;40903;51.638;7.528;2023-02-17T08:10:11;101184.91;;;10.81;100.00
55010;BME280;40903;51.638;7.528;2023-02-17T08:12:54;101167.41;;;10.87;100.00
55010;BME280;40903;51.638;7.528;2023-02-17T08:15:38;101168.50;;;10.91;100.00
55010;BME280;40903;51.638;7.528;2023-02-17T08:18:03;101170.66;;;10.94;100.00
55010;BME280;40903;51.638;7.528;2023-02-17T08:20:30;101170.63;;;10.99;100.00
55010;BME280;40903;51.638;7.528;2023-02-17T08:22:55;101173.31;;;11.04;100.00
55010;BME280;40903;51.638;7.528;2023-02-17T08:25:20;101171.41;;;11.04;100.00
55010;BME280;40903;51.638;7.528;2023-02-17T08:27:46;101170.84;;;11.12;100.00
55010;BME280;40903;51.638;7.528;2023-02-17T08:30:11;101170.56;;;11.09;100.00
55010;BME280;40903;51.638;7.528;2023-02-17T08:32:36;101158.00;;;11.13;100.00
55010;BME280;40903;51.638;7.528;2023-02-17T08:35:01;101155.31;;;11.08;100.00
55010;BME280;40903;51.638;7.528;2023-02-17T08:37:27;101150.63;;;11.13;100.00
55010;BME280;40903;51.638;7.528;2023-02-17T08:39:54;101159.06;;;11.17;100.00
55010;BME280;40903;51.638;7.528;2023-02-17T08:42:19;101164.75;;;11.20;100.00
55010;BME280;40903;51.638;7.528;2023-02-17T08:44:44;101161.50;;;11.18;100.00
55010;BME280;40903;51.638;7.528;2023-02-17T08:47:10;101164.50;;;11.22;100.00
55010;BME280;40903;51.638;7.528;2023-02-17T08:49:35;101159.31;;;11.20;100.00
55010;BME280;40903;51.638;7.528;2023-02-17T08:52:00;101168.28;;;11.26;100.00
55010;BME280;40903;51.638;7.528;2023-02-17T08:54:26;101176.19;;;11.27;100.00
55010;BME280;40903;51.638;7.528;2023-02-17T08:56:51;101156.78;;;11.29;100.00
55010;BME280;40903;51.638;7.528;2023-02-17T08:59:16;101167.75;;;11.24;100.00
55010;BME280;40903;51.638;7.528;2023-02-17T09:01:42;101173.22;;;11.24;100.00
55010;BME280;40903;51.638;7.528;2023-02-17T09:04:08;101169.38;;;11.25;100.00
55010;BME280;40903;51.638;7.528;2023-02-17T09:06:37;101170.19;;;11.25;100.00
55010;BME280;40903;51.638;7.528;2023-02-17T09:09:04;101186.22;;;11.37;100.00
55010;BME280;40903;51.638;7.528;2023-02-17T09:11:29;101180.78;;;11.32;100.00
55010;BME280;40903;51.638;7.528;2023-02-17T09:13:54;101179.16;;;11.31;100.00
55010;BME280;40903;51.638;7.528;2023-02-17T09:16:20;101172.59;;;11.32;100.00
55010;BME280;40903;51.638;7.528;2023-02-17T09:18:48;101173.06;;;11.44;100.00
55010;BME280;40903;51.638;7.528;2023-02-17T09:21:13;101167.53;;;11.49;100.00
55010;BME280;40903;51.638;7.528;2023-02-17T09:23:38;101158.81;;;11.52;100.00
55010;BME280;40903;51.638;7.528;2023-02-17T09:26:05;101164.25;;;11.57;100.00
55010;BME280;40903;51.638;7.528;2023-02-17T09:28:31;101167.50;;;11.59;100.00
55010;BME280;40903;51.638;7.528;2023-02-17T09:30:56;101180.06;;;11.60;100.00
55010;BME280;40903;51.638;7.528;2023-02-17T09:33:21;101182.00;;;11.59;100.00
55010;BME280;40903;51.638;7.528;2023-02-17T09:35:46;101192.59;;;11.66;100.00
55010;BME280;40903;51.638;7.528;2023-02-17T09:38:13;101200.75;;;11.71;100.00
55010;BME280;40903;51.638;7.528;2023-02-17T09:40:45;101208.94;;;11.71;100.00
55010;BME280;40903;51.638;7.528;2023-02-17T09:43:14;101211.13;;;11.69;100.00
55010;BME280;40903;51.638;7.528;2023-02-17T09:45:41;101213.28;;;11.72;100.00
55010;BME280;40903;51.638;7.528;2023-02-17T09:48:09;101210.25;;;11.78;100.00
55010;BME280;40903;51.638;7.528;2023-02-17T09:50:38;101216.22;;;11.80;100.00
55010;BME280;40903;51.638;7.528;2023-02-17T09:53:18;101215.66;;;11.83;100.00
55010;BME280;40903;51.638;7.528;2023-02-17T09:55:49;101208.53;;;11.87;100.00
55010;BME280;40903;51.638;7.528;2023-02-17T09:58:20;101213.94;;;11.92;100.00
55010;BME280;40903;51.638;7.528;2023-02-17T10:00:58;101217.41;;;12.02;100.00
55010;BME280;40903;51.638;7.528;2023-02-17T10:03:29;101211.69;;;11.99;100.00
55010;BME280;40903;51.638;7.528;2023-02-17T10:08:31;101223.97;;;12.01;100.00
55010;BME280;40903;51.638;7.528;2023-02-17T10:13:43;101239.69;;;12.14;100.00
55010;BME280;40903;51.638;7.528;2023-02-17T10:16:10;101228.19;;;12.17;100.00
55010;BME280;40903;51.638;7.528;2023-02-17T10:18:44;101228.69;;;12.24;100.00
55010;BME280;40903;51.638;7.528;2023-02-17T10:21:19;101212.81;;;12.21;100.00
55010;BME280;40903;51.638;7.528;2023-02-17T10:23:48;101210.41;;;12.20;100.00
55010;BME280;40903;51.638;7.528;2023-02-17T10:28:50;101221.69;;;12.37;100.00
55010;BME280;40903;51.638;7.528;2023-02-17T10:34:00;101226.84;;;12.43;100.00
55010;BME280;40903;51.638;7.528;2023-02-17T10:37:10;101204.09;;;12.48;100.00
55010;BME280;40903;51.638;7.528;2023-02-17T10:41:50;101195.47;;;12.59;100.00
55010;BME280;40903;51.638;7.528;2023-02-17T10:44:20;101200.84;;;12.64;100.00
55010;BME280;40903;51.638;7.528;2023-02-17T10:46:46;101176.19;;;12.69;100.00
55010;BME280;40903;51.638;7.528;2023-02-17T10:49:17;101173.63;;;12.78;100.00
55010;BME280;40903;51.638;7.528;2023-02-17T10:51:45;101167.19;;;12.87;100.00
55010;BME280;40903;51.638;7.528;2023-02-17T10:56:55;101166.59;;;12.90;100.00
55010;BME280;40903;51.638;7.528;2023-02-17T11:01:47;101153.97;;;12.94;100.00
55010;BME280;40903;51.638;7.528;2023-02-17T11:04:12;101156.75;;;12.89;100.00
55010;BME280;40903;51.638;7.528;2023-02-17T11:06:41;101147.94;;;12.92;100.00
55010;BME280;40903;51.638;7.528;2023-02-17T11:09:24;101147.13;;;12.92;100.00
55010;BME280;40903;51.638;7.528;2023-02-17T11:12:03;101164.84;;;12.99;100.00
55010;BME280;40903;51.638;7.528;2023-02-17T11:14:30;101142.00;;;13.09;100.00
55010;BME280;40903;51.638;7.528;2023-02-17T11:17:00;101139.69;;;13.16;100.00
55010;BME280;40903;51.638;7.528;2023-02-17T11:19:33;101157.09;;;13.25;100.00
55010;BME280;40903;51.638;7.528;2023-02-17T11:21:59;101147.91;;;13.34;100.00
55010;BME280;40903;51.638;7.528;2023-02-17T11:24:25;101148.84;;;13.43;100.00
55010;BME280;40903;51.638;7.528;2023-02-17T11:26:55;101150.91;;;13.51;100.00
55010;BME280;40903;51.638;7.528;2023-02-17T11:29:21;101151.94;;;13.55;100.00
55010;BME280;40903;51.638;7.528;2023-02-17T11:31:56;101153.69;;;13.65;99.75
55010;BME280;40903;51.638;7.528;2023-02-17T11:34:23;101146.19;;;13.70;98.99
55010;BME280;40903;51.638;7.528;2023-02-17T11:36:59;101143.56;;;13.65;97.00
55010;BME280;40903;51.638;7.528;2023-02-17T11:39:24;101146.28;;;13.65;98.17
55010;BME280;40903;51.638;7.528;2023-02-17T11:41:49;101148.72;;;13.67;97.67
55010;BME280;40903;51.638;7.528;2023-02-17T11:44:21;101159.38;;;13.68;99.52
55010;BME280;40903;51.638;7.528;2023-02-17T11:49:37;101145.00;;;13.76;97.92
55010;BME280;40903;51.638;7.528;2023-02-17T11:52:10;101155.44;;;13.74;97.31
55010;BME280;40903;51.638;7.528;2023-02-17T11:54:45;101153.41;;;13.79;95.66
55010;BME280;40903;51.638;7.528;2023-02-17T11:57:23;101159.56;;;13.90;95.23
55010;BME280;40903;51.638;7.528;2023-02-17T12:05:36;101148.00;;;13.93;92.63
55010;BME280;40903;51.638;7.528;2023-02-17T12:10:44;101116.31;;;14.00;91.25
55010;BME280;40903;51.638;7.528;2023-02-17T12:13:31;101115.88;;;13.93;92.21
55010;BME280;40903;51.638;7.528;2023-02-17T12:24:35;101114.59;;;13.91;93.89
55010;BME280;40903;51.638;7.528;2023-02-17T12:31:36;101103.06;;;13.89;92.92
55010;BME280;40903;51.638;7.528;2023-02-17T12:34:11;101114.47;;;13.82;94.13
55010;BME280;40903;51.638;7.528;2023-02-17T12:36:39;101109.97;;;13.73;94.13
55010;BME280;40903;51.638;7.528;2023-02-17T12:39:10;101116.78;;;13.75;94.43
55010;BME280;40903;51.638;7.528;2023-02-17T12:41:42;101112.19;;;13.71;94.71
55010;BME280;40903;51.638;7.528;2023-02-17T12:44:17;101122.03;;;13.72;94.63
55010;BME280;40903;51.638;7.528;2023-02-17T12:46:45;101121.31;;;13.67;96.08
55010;BME280;40903;51.638;7.528;2023-02-17T12:49:13;101128.00;;;13.61;96.63
55010;BME280;40903;51.638;7.528;2023-02-17T12:51:42;101132.16;;;13.58;97.22
55010;BME280;40903;51.638;7.528;2023-02-17T12:54:11;101131.34;;;13.58;98.09
55010;BME280;40903;51.638;7.528;2023-02-17T12:59:35;101161.41;;;13.63;97.85
55010;BME280;40903;51.638;7.528;2023-02-17T13:02:06;101159.88;;;13.57;98.21
55010;BME280;40903;51.638;7.528;2023-02-17T13:04:32;101161.59;;;13.53;99.03
55010;BME280;40903;51.638;7.528;2023-02-17T13:07:02;101148.47;;;13.50;99.34
55010;BME280;40903;51.638;7.528;2023-02-17T13:09:34;101139.13;;;13.51;99.17
55010;BME280;40903;51.638;7.528;2023-02-17T13:14:46;101152.63;;;13.47;99.67
55010;BME280;40903;51.638;7.528;2023-02-17T13:17:25;101143.69;;;13.42;100.00
55010;BME280;40903;51.638;7.528;2023-02-17T13:22:35;101133.50;;;13.42;100.00
55010;BME280;40903;51.638;7.528;2023-02-17T13:25:01;101143.59;;;13.47;100.00
55010;BME280;40903;51.638;7.528;2023-02-17T13:29:58;101173.56;;;13.38;100.00
55010;BME280;40903;51.638;7.528;2023-02-17T13:32:29;101171.06;;;13.42;100.00
55010;BME280;40903;51.638;7.528;2023-02-17T13:39:58;101169.13;;;13.42;100.00
55010;BME280;40903;51.638;7.528;2023-02-17T13:42:34;101171.88;;;13.42;100.00
55010;BME280;40903;51.638;7.528;2023-02-17T13:45:00;101175.44;;;13.43;100.00
55010;BME280;40903;51.638;7.528;2023-02-17T13:47:29;101181.44;;;13.45;100.00
55010;BME280;40903;51.638;7.528;2023-02-17T13:49:55;101185.56;;;13.42;100.00
55010;BME280;40903;51.638;7.528;2023-02-17T13:52:30;101184.44;;;13.43;100.00
55010;BME280;40903;51.638;7.528;2023-02-17T13:54:57;101183.94;;;13.41;100.00